createdAt,value
2023-01-25T00:00:00.891Z,1.14
2023-01-25T00:02:28.400Z,1.15
2023-01-25T00:04:54.930Z,1.16
2023-01-25T00:07:21.611Z,1.26
2023-01-25T00:09:48.047Z,1.28
2023-01-25T00:12:14.520Z,1.27
2023-01-25T00:14:40.975Z,1.29
2023-01-25T00:17:07.406Z,1.27
2023-01-25T00:19:33.975Z,1.27
2023-01-25T00:22:00.450Z,1.24
2023-01-25T00:24:26.959Z,1.19
2023-01-25T00:26:53.387Z,1.18
2023-01-25T00:29:19.943Z,1.18
2023-01-25T00:31:58.729Z,1.16
2023-01-25T00:34:25.363Z,1.11
2023-01-25T00:36:56.905Z,1.14
2023-01-25T00:39:25.112Z,1.05
2023-01-25T00:41:51.549Z,1.00
2023-01-25T00:44:18.031Z,0.93
2023-01-25T00:46:44.678Z,0.88
2023-01-25T00:49:22.705Z,0.83
2023-01-25T00:51:49.868Z,0.88
2023-01-25T00:54:16.998Z,0.94
2023-01-25T00:56:43.643Z,1.00
2023-01-25T00:59:10.610Z,1.05
2023-01-25T01:01:37.430Z,1.06
2023-01-25T01:04:05.698Z,1.03
2023-01-25T01:06:35.588Z,1.03
2023-01-25T01:09:02.890Z,0.96
2023-01-25T01:11:31.416Z,0.97
2023-01-25T01:13:58.771Z,0.93
2023-01-25T01:16:26.208Z,0.93
2023-01-25T01:18:53.323Z,0.87
2023-01-25T01:21:20.532Z,0.89
2023-01-25T01:23:48.197Z,0.92
2023-01-25T01:26:19.232Z,1.06
2023-01-25T01:28:46.303Z,0.90
2023-01-25T01:31:24.110Z,0.94
2023-01-25T01:33:52.543Z,0.99
2023-01-25T01:36:20.719Z,0.99
2023-01-25T01:38:47.841Z,1.08
2023-01-25T01:41:15.457Z,1.25
2023-01-25T01:43:42.925Z,1.27
2023-01-25T01:46:27.687Z,1.20
2023-01-25T01:49:38.299Z,1.12
2023-01-25T01:52:11.093Z,0.99
2023-01-25T01:54:55.320Z,1.10
2023-01-25T01:57:32.347Z,1.17
2023-01-25T02:00:04.875Z,1.30
2023-01-25T02:02:31.385Z,1.16
2023-01-25T02:05:00.988Z,1.23
2023-01-25T02:07:35.955Z,1.32
2023-01-25T02:10:05.663Z,1.34
2023-01-25T02:12:32.420Z,1.33
2023-01-25T02:14:58.923Z,1.27
2023-01-25T02:17:34.282Z,1.34
2023-01-25T02:20:37.744Z,1.22
2023-01-25T02:23:06.980Z,1.12
2023-01-25T02:25:33.385Z,1.10
2023-01-25T02:28:07.295Z,0.96
2023-01-25T02:30:34.472Z,0.86
2023-01-25T02:33:01.072Z,0.76
2023-01-25T02:36:09.078Z,0.75
2023-01-25T02:38:38.849Z,0.74
2023-01-25T02:41:13.689Z,0.77
2023-01-25T02:43:40.104Z,0.86
2023-01-25T02:46:31.847Z,0.88
2023-01-25T02:48:59.920Z,0.82
2023-01-25T02:51:29.758Z,0.82
2023-01-25T02:53:57.252Z,0.75
2023-01-25T02:56:23.841Z,0.76
2023-01-25T02:58:50.590Z,0.86
2023-01-25T03:01:17.373Z,0.88
2023-01-25T03:03:43.940Z,0.88
2023-01-25T03:06:10.889Z,1.00
2023-01-25T03:08:37.344Z,1.13
2023-01-25T03:11:06.248Z,0.98
2023-01-25T03:13:34.096Z,0.92
2023-01-25T03:16:07.698Z,1.00
2023-01-25T03:18:34.706Z,0.99
2023-01-25T03:21:20.145Z,0.91
2023-01-25T03:23:47.909Z,0.82
2023-01-25T03:26:20.602Z,0.82
2023-01-25T03:28:47.148Z,0.85
2023-01-25T03:31:15.357Z,0.84
2023-01-25T03:33:42.402Z,0.79
2023-01-25T03:36:10.446Z,0.88
2023-01-25T03:38:37.488Z,1.01
2023-01-25T03:41:04.341Z,1.06
2023-01-25T03:43:30.852Z,1.03
2023-01-25T03:45:59.504Z,1.06
2023-01-25T03:48:27.390Z,1.12
2023-01-25T03:50:58.264Z,1.12
2023-01-25T03:53:29.830Z,1.21
2023-01-25T03:55:58.075Z,1.26
2023-01-25T03:58:25.223Z,1.28
2023-01-25T04:00:55.320Z,1.14
2023-01-25T04:03:22.235Z,1.10
2023-01-25T04:05:48.960Z,0.89
2023-01-25T04:08:15.480Z,0.85
2023-01-25T04:10:41.927Z,0.98
2023-01-25T04:13:08.834Z,1.04
2023-01-25T04:15:35.658Z,1.12
2023-01-25T04:18:02.306Z,1.15
2023-01-25T04:20:28.842Z,1.05
2023-01-25T04:22:55.224Z,1.17
2023-01-25T04:25:21.675Z,1.19
2023-01-25T04:27:49.615Z,1.18
2023-01-25T04:30:16.298Z,1.20
2023-01-25T04:32:43.144Z,1.28
2023-01-25T04:35:09.970Z,1.29
2023-01-25T04:37:36.705Z,1.35
2023-01-25T04:40:04.114Z,1.34
2023-01-25T04:42:30.669Z,1.32
2023-01-25T04:44:57.068Z,1.11
2023-01-25T04:47:23.502Z,1.25
2023-01-25T04:49:49.911Z,1.31
2023-01-25T04:52:16.349Z,1.32
2023-01-25T04:54:42.923Z,1.29
2023-01-25T04:57:09.369Z,1.29
2023-01-25T04:59:35.752Z,1.44
2023-01-25T05:02:02.223Z,1.46
2023-01-25T05:04:28.636Z,1.27
2023-01-25T05:06:55.123Z,1.27
2023-01-25T05:09:21.611Z,1.07
2023-01-25T05:11:48.026Z,1.08
2023-01-25T05:14:14.481Z,1.05
2023-01-25T05:16:40.914Z,1.02
2023-01-25T05:19:09.817Z,1.00
2023-01-25T05:21:54.828Z,0.98
2023-01-25T05:24:21.290Z,1.14
2023-01-25T05:27:06.100Z,1.20
2023-01-25T05:29:36.255Z,1.26
2023-01-25T05:32:05.085Z,1.35
2023-01-25T05:34:31.927Z,1.39
2023-01-25T05:36:58.631Z,1.31
2023-01-25T05:39:25.163Z,1.20
2023-01-25T05:41:52.122Z,1.23
2023-01-25T05:44:18.990Z,1.27
2023-01-25T05:46:45.698Z,1.22
2023-01-25T05:49:12.642Z,1.22
2023-01-25T05:51:39.707Z,1.20
2023-01-25T05:54:07.203Z,1.12
2023-01-25T05:56:34.266Z,1.14
2023-01-25T05:59:17.278Z,1.30
2023-01-25T06:01:43.945Z,1.34
2023-01-25T06:04:14.899Z,1.34
2023-01-25T06:06:41.524Z,1.22
2023-01-25T06:09:08.027Z,1.18
2023-01-25T06:11:34.401Z,0.96
2023-01-25T06:14:00.832Z,0.79
2023-01-25T06:16:27.626Z,0.76
2023-01-25T06:18:54.020Z,0.70
2023-01-25T06:21:20.492Z,0.71
2023-01-25T06:23:46.910Z,0.68
2023-01-25T06:26:15.497Z,0.76
2023-01-25T06:28:42.086Z,0.76
2023-01-25T06:31:11.214Z,0.81
2023-01-25T06:33:38.469Z,0.85
2023-01-25T06:36:08.003Z,0.74
2023-01-25T06:38:37.551Z,0.71
2023-01-25T06:41:06.543Z,0.79
2023-01-25T06:43:34.098Z,0.82
2023-01-25T06:46:01.915Z,0.89
2023-01-25T06:48:29.690Z,0.93
2023-01-25T06:50:58.354Z,1.03
2023-01-25T06:53:30.541Z,1.03
2023-01-25T06:56:18.177Z,1.01
2023-01-25T06:58:45.627Z,1.01
2023-01-25T07:01:19.806Z,1.01
2023-01-25T07:03:51.209Z,0.97
2023-01-25T07:06:17.943Z,0.96
2023-01-25T07:08:44.395Z,1.11
2023-01-25T07:11:13.915Z,1.28
2023-01-25T07:13:45.774Z,1.30
2023-01-25T07:16:14.868Z,1.37
2023-01-25T07:18:42.163Z,1.41
2023-01-25T07:21:13.108Z,1.37
2023-01-25T07:23:40.124Z,1.35
2023-01-25T07:26:10.106Z,1.36
2023-01-25T07:28:36.521Z,1.24
2023-01-25T07:31:07.010Z,1.45
2023-01-25T07:33:34.236Z,1.48
2023-01-25T07:36:06.302Z,1.44
2023-01-25T07:38:32.752Z,1.35
2023-01-25T07:41:00.749Z,1.32
2023-01-25T07:43:27.541Z,1.38
2023-01-25T07:45:54.253Z,1.41
2023-01-25T07:48:21.154Z,1.34
2023-01-25T07:50:49.605Z,1.30
2023-01-25T07:53:16.959Z,1.46
2023-01-25T07:55:43.403Z,1.26
2023-01-25T07:58:12.981Z,1.24
2023-01-25T08:00:40.287Z,1.33
2023-01-25T08:03:08.028Z,1.42
2023-01-25T08:05:34.364Z,1.44
2023-01-25T08:08:00.816Z,1.50
2023-01-25T08:10:27.216Z,1.55
2023-01-25T08:12:53.785Z,1.48
2023-01-25T08:15:20.156Z,1.50
2023-01-25T08:17:46.559Z,1.44
2023-01-25T08:20:13.932Z,1.43
2023-01-25T08:22:40.319Z,1.40
2023-01-25T08:25:07.703Z,1.39
2023-01-25T08:27:34.298Z,1.35
2023-01-25T08:30:00.775Z,1.39
2023-01-25T08:32:27.173Z,1.45
2023-01-25T08:34:53.542Z,1.26
2023-01-25T08:37:20.021Z,1.28
2023-01-25T08:39:46.454Z,1.41
2023-01-25T08:42:12.827Z,1.40
2023-01-25T08:44:39.228Z,1.40
2023-01-25T08:47:06.070Z,1.38
2023-01-25T08:49:34.427Z,1.39
2023-01-25T08:52:00.989Z,1.28
2023-01-25T08:54:27.498Z,1.35
2023-01-25T08:56:54.006Z,1.41
2023-01-25T08:59:20.472Z,1.47
2023-01-25T09:01:46.835Z,1.41
2023-01-25T09:04:13.340Z,1.36
2023-01-25T09:06:39.823Z,1.33
2023-01-25T09:09:08.398Z,1.33
2023-01-25T09:11:37.113Z,1.31
2023-01-25T09:14:04.636Z,1.32
2023-01-25T09:16:31.330Z,1.33
2023-01-25T09:19:00.357Z,1.25
2023-01-25T09:21:27.732Z,1.19
2023-01-25T09:24:09.666Z,1.14
2023-01-25T09:26:39.271Z,1.19
2023-01-25T09:29:08.233Z,1.19
2023-01-25T09:31:35.574Z,1.23
2023-01-25T09:34:02.425Z,1.18
2023-01-25T09:36:28.795Z,1.14
2023-01-25T09:38:55.845Z,1.19
2023-01-25T09:41:49.889Z,1.31
2023-01-25T09:44:34.495Z,1.30
2023-01-25T09:47:31.063Z,1.40
2023-01-25T09:50:32.551Z,1.32
2023-01-25T09:53:06.447Z,1.43
2023-01-25T09:55:33.844Z,1.20
2023-01-25T09:58:02.633Z,1.36
2023-01-25T10:00:41.475Z,1.45
2023-01-25T10:03:25.905Z,1.49
2023-01-25T10:05:56.823Z,1.40
2023-01-25T10:08:53.688Z,1.32
2023-01-25T10:11:25.011Z,1.39
2023-01-25T10:13:51.802Z,1.44
2023-01-25T10:16:32.964Z,1.48
2023-01-25T10:19:20.807Z,1.42
2023-01-25T10:21:57.236Z,1.39
2023-01-25T10:24:26.384Z,1.48
2023-01-25T10:26:57.336Z,1.44
2023-01-25T10:29:28.920Z,1.48
2023-01-25T10:32:16.109Z,1.52
2023-01-25T10:34:56.379Z,1.46
2023-01-25T10:37:28.288Z,1.46
2023-01-25T10:40:13.513Z,1.46
2023-01-25T10:42:50.543Z,1.42
2023-01-25T10:45:17.517Z,1.36
2023-01-25T10:47:48.423Z,1.46
2023-01-25T10:50:46.490Z,1.53
2023-01-25T10:53:26.717Z,1.59
2023-01-25T10:56:10.742Z,1.53
2023-01-25T10:58:39.703Z,1.54
2023-01-25T11:01:08.835Z,1.64
2023-01-25T11:03:38.661Z,1.69
2023-01-25T11:06:06.456Z,1.77
2023-01-25T11:08:34.854Z,1.79
2023-01-25T11:11:21.512Z,1.82
2023-01-25T11:13:48.186Z,1.82
2023-01-25T11:16:38.851Z,1.85
2023-01-25T11:19:41.958Z,1.91
2023-01-25T11:22:20.475Z,1.88
2023-01-25T11:24:47.490Z,1.80
2023-01-25T11:27:20.363Z,1.78
2023-01-25T11:30:08.306Z,1.69
2023-01-25T11:32:35.122Z,1.58
2023-01-25T11:35:01.987Z,1.55
2023-01-25T11:37:56.165Z,1.51
2023-01-25T11:40:37.623Z,1.37
2023-01-25T11:43:44.167Z,1.44
2023-01-25T11:46:50.438Z,1.46
2023-01-25T11:49:28.846Z,1.57
2023-01-25T11:52:16.557Z,1.57
2023-01-25T11:54:56.786Z,1.55
2023-01-25T11:57:35.249Z,1.52
2023-01-25T12:00:22.714Z,1.52
2023-01-25T12:03:07.966Z,1.59
2023-01-25T12:05:59.898Z,1.60
2023-01-25T12:08:40.836Z,1.60
2023-01-25T12:11:26.008Z,1.59
2023-01-25T12:14:04.501Z,1.58
2023-01-25T12:16:53.494Z,1.64
2023-01-25T12:19:23.020Z,1.63
2023-01-25T12:22:06.027Z,1.66
2023-01-25T12:24:37.489Z,1.73
2023-01-25T12:27:19.030Z,1.75
2023-01-25T12:29:52.303Z,1.80
2023-01-25T12:32:32.605Z,1.90
2023-01-25T12:35:23.830Z,1.64
2023-01-25T12:37:52.989Z,1.51
2023-01-25T12:40:25.836Z,1.48
2023-01-25T12:42:56.835Z,1.50
2023-01-25T12:45:31.659Z,1.49
2023-01-25T12:48:00.932Z,1.52
2023-01-25T12:50:51.318Z,1.52
2023-01-25T12:53:36.229Z,1.48
2023-01-25T12:56:06.562Z,1.54
2023-01-25T12:58:44.207Z,1.57
2023-01-25T13:01:22.679Z,1.59
2023-01-25T13:04:28.334Z,1.48
2023-01-25T13:07:20.715Z,1.37
2023-01-25T13:10:23.597Z,1.15
2023-01-25T13:12:57.829Z,1.25
2023-01-25T13:15:44.731Z,1.24
2023-01-25T13:18:29.655Z,1.22
2023-01-25T13:20:58.034Z,1.27
2023-01-25T13:23:32.720Z,1.31
2023-01-25T13:26:20.904Z,1.32
2023-01-25T13:28:52.608Z,1.35
2023-01-25T13:31:59.044Z,1.39
2023-01-25T13:34:35.569Z,1.39
2023-01-25T13:37:42.639Z,1.30
2023-01-25T13:40:31.366Z,1.30
2023-01-25T13:43:01.987Z,1.40
2023-01-25T13:45:29.498Z,1.37
2023-01-25T13:48:19.826Z,1.42
2023-01-25T13:50:53.314Z,1.40
2023-01-25T13:53:23.440Z,1.42
2023-01-25T13:55:53.593Z,1.41
2023-01-25T13:58:22.821Z,1.52
2023-01-25T14:01:13.095Z,1.59
2023-01-25T14:03:56.806Z,1.59
2023-01-25T14:06:31.960Z,1.63
2023-01-25T14:09:03.049Z,1.58
2023-01-25T14:11:32.133Z,1.61
2023-01-25T14:14:18.762Z,1.61
2023-01-25T14:16:45.427Z,1.64
2023-01-25T14:19:26.468Z,1.65
2023-01-25T14:22:27.364Z,1.66
2023-01-25T14:25:15.476Z,1.64
2023-01-25T14:27:53.807Z,1.68
2023-01-25T14:30:26.297Z,1.73
2023-01-25T14:32:58.998Z,1.76
2023-01-25T14:35:53.837Z,1.72
2023-01-25T14:38:34.657Z,1.74
2023-01-25T14:41:16.562Z,1.78
2023-01-25T14:43:46.099Z,1.76
2023-01-25T14:46:26.659Z,1.76
2023-01-25T14:49:12.996Z,1.69
2023-01-25T14:51:44.969Z,1.69
2023-01-25T14:54:19.799Z,1.74
2023-01-25T14:56:49.501Z,1.74
2023-01-25T14:59:41.666Z,1.73
2023-01-25T15:02:29.175Z,1.73
2023-01-25T15:05:04.860Z,1.68
2023-01-25T15:08:06.396Z,1.68
2023-01-25T15:10:37.293Z,1.67
2023-01-25T15:13:14.080Z,1.68
2023-01-25T15:15:59.936Z,1.67
2023-01-25T15:18:52.332Z,1.66
2023-01-25T15:21:19.826Z,1.70
2023-01-25T15:23:48.807Z,1.63
2023-01-25T15:26:21.500Z,1.63
2023-01-25T15:28:49.706Z,1.66
2023-01-25T15:31:37.276Z,1.65
2023-01-25T15:34:04.714Z,1.50
2023-01-25T15:36:32.808Z,1.54
2023-01-25T15:38:59.604Z,1.49
2023-01-25T15:41:26.058Z,1.53
2023-01-25T15:43:52.541Z,1.49
2023-01-25T15:46:25.003Z,1.53
2023-01-25T15:48:51.911Z,1.57
2023-01-25T15:51:19.111Z,1.54
2023-01-25T15:53:46.733Z,1.53
2023-01-25T15:56:16.185Z,1.62
2023-01-25T15:58:46.124Z,1.60
2023-01-25T16:01:12.946Z,1.49
2023-01-25T16:03:41.473Z,1.43
2023-01-25T16:06:32.141Z,1.40
2023-01-25T16:09:00.151Z,1.47
2023-01-25T16:11:27.509Z,1.45
2023-01-25T16:13:54.044Z,1.46
2023-01-25T16:16:23.223Z,1.46
2023-01-25T16:18:50.120Z,1.40
2023-01-25T16:21:17.062Z,1.40
2023-01-25T16:23:43.579Z,1.42
2023-01-25T16:26:23.294Z,1.44
2023-01-25T16:28:49.796Z,1.41
2023-01-25T16:31:31.443Z,1.39
2023-01-25T16:33:58.872Z,1.36
2023-01-25T16:36:25.523Z,1.40
2023-01-25T16:38:52.424Z,1.45
2023-01-25T16:41:19.005Z,1.41
2023-01-25T16:43:48.026Z,1.43
2023-01-25T16:46:20.247Z,1.43
2023-01-25T16:48:48.665Z,1.47
2023-01-25T16:51:19.623Z,1.51
2023-01-25T16:53:47.182Z,1.51
2023-01-25T16:56:22.042Z,1.50
2023-01-25T16:58:50.129Z,1.53
2023-01-25T17:01:18.606Z,1.44
2023-01-25T17:03:45.448Z,1.44
2023-01-25T17:06:23.797Z,1.41
2023-01-25T17:08:51.324Z,1.39
2023-01-25T17:11:22.616Z,1.34
2023-01-25T17:13:53.718Z,1.41
2023-01-25T17:16:21.838Z,1.41
2023-01-25T17:18:48.458Z,1.38
2023-01-25T17:21:15.091Z,1.44
2023-01-25T17:23:41.979Z,1.42
2023-01-25T17:26:13.105Z,1.41
2023-01-25T17:28:40.114Z,1.36
2023-01-25T17:31:14.401Z,1.38
2023-01-25T17:33:41.295Z,1.35
2023-01-25T17:36:09.195Z,1.36
2023-01-25T17:38:35.710Z,1.38
2023-01-25T17:41:06.306Z,1.44
2023-01-25T17:43:34.476Z,1.45
2023-01-25T17:46:11.373Z,1.49
2023-01-25T17:48:37.821Z,1.41
2023-01-25T17:51:04.760Z,1.38
2023-01-25T17:53:31.200Z,1.37
2023-01-25T17:56:02.907Z,1.38
2023-01-25T17:58:30.444Z,1.38
2023-01-25T18:01:05.157Z,1.35
2023-01-25T18:03:39.113Z,1.41
2023-01-25T18:06:09.407Z,1.42
2023-01-25T18:08:43.801Z,1.35
2023-01-25T18:11:12.614Z,1.32
2023-01-25T18:13:40.809Z,1.27
2023-01-25T18:16:09.428Z,1.21
2023-01-25T18:18:41.667Z,1.14
2023-01-25T18:21:11.011Z,1.13
2023-01-25T18:23:38.212Z,1.11
2023-01-25T18:26:06.467Z,1.06
2023-01-25T18:28:33.083Z,0.98
2023-01-25T18:31:02.521Z,0.91
2023-01-25T18:33:29.390Z,0.97
2023-01-25T18:35:57.391Z,0.96
2023-01-25T18:38:24.252Z,0.90
2023-01-25T18:40:52.789Z,0.86
2023-01-25T18:43:20.060Z,0.85
2023-01-25T18:45:57.088Z,0.89
2023-01-25T18:48:30.521Z,0.94
2023-01-25T18:51:03.922Z,0.94
2023-01-25T18:53:31.953Z,0.99
2023-01-25T18:56:03.277Z,0.99
2023-01-25T18:58:34.157Z,1.01
2023-01-25T19:01:05.964Z,0.95
2023-01-25T19:03:32.817Z,0.95
2023-01-25T19:05:59.341Z,0.95
2023-01-25T19:08:27.325Z,0.96
2023-01-25T19:11:05.855Z,1.01
2023-01-25T19:13:37.095Z,0.98
2023-01-25T19:16:08.844Z,0.99
2023-01-25T19:18:37.361Z,1.02
2023-01-25T19:21:08.768Z,0.98
2023-01-25T19:23:37.035Z,0.98
2023-01-25T19:26:04.818Z,1.01
2023-01-25T19:28:31.525Z,1.04
2023-01-25T19:31:15.379Z,1.05
2023-01-25T19:33:42.640Z,1.13
2023-01-25T19:36:15.375Z,1.15
2023-01-25T19:38:42.792Z,1.17
2023-01-25T19:41:18.707Z,1.22
2023-01-25T19:43:45.652Z,1.24
2023-01-25T19:46:14.514Z,1.20
2023-01-25T19:48:42.274Z,1.17
2023-01-25T19:51:11.632Z,1.17
2023-01-25T19:53:38.326Z,1.18
2023-01-25T19:56:06.130Z,1.17
2023-01-25T19:58:32.728Z,1.19
2023-01-25T20:01:10.002Z,1.16
2023-01-25T20:03:37.362Z,1.20
2023-01-25T20:06:07.017Z,1.20
2023-01-25T20:08:36.037Z,1.17
2023-01-25T20:11:20.632Z,1.20
2023-01-25T20:13:48.571Z,1.14
2023-01-25T20:16:18.372Z,1.10
2023-01-25T20:18:46.330Z,1.12
2023-01-25T20:21:16.302Z,1.14
2023-01-25T20:23:44.543Z,1.15
2023-01-25T20:26:14.455Z,1.16
2023-01-25T20:28:42.455Z,1.17
2023-01-25T20:31:27.199Z,1.15
2023-01-25T20:33:56.037Z,1.18
2023-01-25T20:36:23.369Z,1.19
2023-01-25T20:38:50.242Z,1.15
2023-01-25T20:41:18.405Z,1.22
2023-01-25T20:43:50.804Z,1.25
2023-01-25T20:46:18.805Z,1.19
2023-01-25T20:48:45.560Z,1.20
2023-01-25T20:51:16.791Z,1.16
2023-01-25T20:53:45.073Z,1.13
2023-01-25T20:56:13.186Z,1.13
2023-01-25T20:58:39.871Z,1.10
2023-01-25T21:01:18.042Z,1.19
2023-01-25T21:03:44.484Z,1.19
2023-01-25T21:06:12.025Z,1.13
2023-01-25T21:08:38.560Z,1.17
2023-01-25T21:11:05.511Z,1.13
2023-01-25T21:13:32.022Z,1.19
2023-01-25T21:16:01.145Z,1.18
2023-01-25T21:18:29.178Z,1.11
2023-01-25T21:21:09.273Z,1.15
2023-01-25T21:23:38.139Z,1.10
2023-01-25T21:26:05.834Z,1.11
2023-01-25T21:28:33.461Z,1.17
2023-01-25T21:31:10.977Z,1.13
2023-01-25T21:33:38.052Z,1.19
2023-01-25T21:36:08.645Z,1.13
2023-01-25T21:38:36.034Z,1.14
2023-01-25T21:41:04.613Z,1.14
2023-01-25T21:43:52.561Z,1.15
2023-01-25T21:46:26.662Z,1.11
2023-01-25T21:49:12.742Z,1.10
2023-01-25T21:51:51.451Z,1.12
2023-01-25T21:54:26.129Z,1.12
2023-01-25T21:56:55.149Z,1.17
2023-01-25T21:59:22.527Z,1.12
2023-01-25T22:01:49.391Z,1.08
2023-01-25T22:04:17.806Z,1.13
2023-01-25T22:06:45.161Z,1.20
2023-01-25T22:09:13.628Z,1.18
2023-01-25T22:11:40.612Z,1.14
2023-01-25T22:14:07.296Z,1.12
2023-01-25T22:16:33.714Z,1.09
2023-01-25T22:19:00.503Z,1.16
2023-01-25T22:21:30.758Z,1.18
2023-01-25T22:23:58.670Z,1.14
2023-01-25T22:26:29.671Z,1.12
2023-01-25T22:28:59.979Z,1.10
2023-01-25T22:31:30.255Z,1.08
2023-01-25T22:33:59.280Z,1.14
2023-01-25T22:36:28.377Z,1.10
2023-01-25T22:38:55.162Z,1.06
2023-01-25T22:41:24.158Z,1.03
2023-01-25T22:43:50.714Z,1.04
2023-01-25T22:46:22.484Z,1.04
2023-01-25T22:48:49.295Z,1.01
2023-01-25T22:51:22.177Z,1.06
2023-01-25T22:53:49.874Z,1.02
2023-01-25T22:56:19.440Z,1.08
2023-01-25T22:58:47.323Z,1.04
2023-01-25T23:01:17.311Z,0.99
2023-01-25T23:03:44.128Z,1.02
2023-01-25T23:06:16.856Z,0.98
2023-01-25T23:08:44.111Z,0.90
2023-01-25T23:11:16.986Z,0.92
2023-01-25T23:14:03.208Z,0.97
2023-01-25T23:16:30.346Z,0.96
2023-01-25T23:18:56.827Z,0.94
2023-01-25T23:21:27.282Z,0.98
2023-01-25T23:24:00.575Z,0.89
2023-01-25T23:26:27.683Z,0.97
2023-01-25T23:28:57.100Z,1.01
2023-01-25T23:31:25.221Z,0.91
2023-01-25T23:33:54.234Z,0.96
2023-01-25T23:36:23.999Z,1.02
2023-01-25T23:38:54.651Z,0.90
2023-01-25T23:41:23.613Z,0.91
2023-01-25T23:43:50.256Z,0.91
2023-01-25T23:46:17.451Z,0.94
2023-01-25T23:48:45.558Z,0.93
2023-01-25T23:51:13.828Z,0.92
2023-01-25T23:53:41.210Z,0.92
2023-01-25T23:56:12.323Z,0.84
2023-01-25T23:58:39.654Z,0.88
